Time;durP1;ratioP1;P1;durP2;ratioP2;P2;SDS_P1;SDS_P2;PMS_P1;PMS_P2;Temp;Humidity;BMP_temperature;BMP_pressure;BME280_temperature;BME280_humidity;BME280_pressure;Samples;Min_cycle;Max_cycle;Signal;HPM_P1;HPM_P2
2022/03/21 00:00:23;;;;;;;18.75;11.57;;;27.30;99.90;;;;;;4167277;28;20077;-70
2022/03/21 00:02:29;;;;;;;17.13;12.10;;;27.40;99.90;;;;;;4167449;28;20049;-69
2022/03/21 00:04:36;;;;;;;18.00;11.90;;;27.40;99.90;;;;;;4167815;28;20053;-71
2022/03/21 00:06:42;;;;;;;17.13;11.98;;;27.40;99.90;;;;;;4169512;28;20049;-71
2022/03/21 00:08:48;;;;;;;16.90;12.48;;;27.50;99.90;;;;;;4168583;28;20043;-70
2022/03/21 00:10:56;;;;;;;21.52;12.85;;;27.40;99.90;;;;;;4110756;28;20053;-71
2022/03/21 00:13:01;;;;;;;17.83;12.63;;;27.50;99.90;;;;;;4169226;28;20218;-71
2022/03/21 00:15:11;;;;;;;19.40;12.63;;;27.50;99.90;;;;;;4168628;28;20124;-71
2022/03/21 00:17:18;;;;;;;19.08;12.90;;;27.50;99.90;;;;;;4168001;28;20042;-71
2022/03/21 00:19:26;;;;;;;17.67;13.32;;;27.60;99.90;;;;;;4168883;28;20038;-71
2022/03/21 00:21:34;;;;;;;17.75;12.75;;;27.60;99.90;;;;;;4167328;28;20132;-71
2022/03/21 00:23:40;;;;;;;18.30;13.40;;;27.70;99.90;;;;;;4164163;28;20164;-72
2022/03/21 00:25:44;;;;;;;18.48;12.48;;;27.70;99.90;;;;;;4167337;28;20053;-71
2022/03/21 00:27:51;;;;;;;22.30;12.93;;;27.70;99.90;;;;;;4169178;28;20042;-70
2022/03/21 00:29:58;;;;;;;17.17;11.98;;;27.80;99.90;;;;;;4163240;28;20033;-71
2022/03/21 00:32:06;;;;;;;19.48;12.45;;;27.80;99.90;;;;;;4190421;28;20075;-71
2022/03/21 00:34:20;;;;;;;16.73;12.07;;;27.80;99.90;;;;;;4166712;28;20037;-70
2022/03/21 00:36:29;;;;;;;19.92;11.98;;;27.90;99.90;;;;;;4133625;28;20070;-71
2022/03/21 00:38:50;;;;;;;15.95;11.88;;;27.90;99.90;;;;;;4167889;28;20045;-71
2022/03/21 00:40:57;;;;;;;15.68;11.60;;;28.00;99.90;;;;;;4166478;28;20041;-70
2022/03/21 00:43:08;;;;;;;16.35;11.93;;;28.00;99.90;;;;;;4178314;28;20041;-70
2022/03/21 00:45:18;;;;;;;18.00;12.45;;;28.00;99.90;;;;;;4163962;28;20515;-70
2022/03/21 00:47:24;;;;;;;15.85;11.65;;;28.00;99.90;;;;;;4164845;28;20088;-70
2022/03/21 00:49:33;;;;;;;17.58;12.10;;;28.00;99.90;;;;;;4165411;28;20045;-69
2022/03/21 00:51:41;;;;;;;19.92;12.40;;;28.00;99.90;;;;;;4164752;28;20608;-70
2022/03/21 00:53:49;;;;;;;15.63;12.00;;;28.10;99.90;;;;;;4165994;28;20673;-71
2022/03/21 00:55:58;;;;;;;15.85;11.68;;;28.10;99.90;;;;;;4164530;28;20045;-69
2022/03/21 00:58:04;;;;;;;15.50;11.85;;;28.20;99.90;;;;;;4163253;28;20049;-69
2022/03/21 01:00:21;;;;;;;17.25;11.93;;;28.20;99.90;;;;;;4161916;28;20561;-70
2022/03/21 01:02:28;;;;;;;15.18;12.15;;;28.20;99.90;;;;;;4164283;28;20050;-70
2022/03/21 01:04:42;;;;;;;19.07;12.73;;;28.10;99.90;;;;;;4164640;28;20073;-72
2022/03/21 01:06:55;;;;;;;13.27;11.63;;;28.10;99.90;;;;;;4166279;28;20148;-71
2022/03/21 01:09:02;;;;;;;15.98;11.93;;;28.10;99.90;;;;;;4145035;28;20060;-72
2022/03/21 01:11:08;;;;;;;18.30;12.15;;;28.20;99.90;;;;;;4168310;28;20088;-70
2022/03/21 01:13:18;;;;;;;17.90;13.23;;;28.20;99.90;;;;;;4166321;28;20045;-70
2022/03/21 01:15:28;;;;;;;16.52;12.63;;;28.30;99.90;;;;;;4167159;28;20061;-71
2022/03/21 01:17:37;;;;;;;22.90;12.90;;;28.30;99.90;;;;;;4163229;28;20294;-69
2022/03/21 01:19:45;;;;;;;18.08;12.90;;;28.30;99.90;;;;;;4162956;28;20083;-70
2022/03/21 01:21:57;;;;;;;17.33;11.93;;;28.40;99.90;;;;;;4162046;28;20037;-70
2022/03/21 01:24:02;;;;;;;15.75;12.77;;;28.40;99.90;;;;;;4165727;28;20377;-71
2022/03/21 01:26:10;;;;;;;17.48;12.43;;;28.60;99.90;;;;;;4166561;28;20048;-68
2022/03/21 01:28:19;;;;;;;14.30;10.68;;;28.60;99.90;;;;;;4165804;28;20046;-70
2022/03/21 01:30:24;;;;;;;13.27;11.68;;;28.70;99.90;;;;;;4167112;28;20045;-71
2022/03/21 01:32:35;;;;;;;17.90;11.70;;;28.70;99.90;;;;;;4167766;28;20123;-70
2022/03/21 01:34:42;;;;;;;15.88;11.82;;;28.70;99.90;;;;;;4165232;28;20053;-71
2022/03/21 01:36:48;;;;;;;16.25;11.70;;;28.80;99.90;;;;;;4166980;28;20076;-69
2022/03/21 01:38:56;;;;;;;15.95;12.60;;;28.90;99.90;;;;;;4168295;28;20075;-70
2022/03/21 01:41:02;;;;;;;14.40;10.98;;;28.90;99.90;;;;;;4115182;28;20098;-69
2022/03/21 01:43:10;;;;;;;16.52;11.52;;;29.00;99.90;;;;;;4167146;28;20038;-67
2022/03/21 01:45:17;;;;;;;13.57;11.38;;;29.00;99.90;;;;;;4164273;28;20064;-68
2022/03/21 01:47:24;;;;;;;15.60;12.63;;;29.00;99.90;;;;;;4150881;28;20354;-69
2022/03/21 01:49:31;;;;;;;18.50;12.20;;;29.00;99.90;;;;;;4168580;28;20049;-71
2022/03/21 01:51:38;;;;;;;16.20;12.52;;;29.00;99.90;;;;;;4165396;28;20037;-71
2022/03/21 01:56:05;;;;;;;15.60;11.70;;;29.00;99.90;;;;;;4165750;28;20046;-70
2022/03/21 01:58:14;;;;;;;16.52;12.52;;;29.10;99.90;;;;;;4192042;28;20100;-74
2022/03/21 02:00:22;;;;;;;17.70;13.18;;;29.20;99.90;;;;;;4166295;28;20061;-71
2022/03/21 02:02:29;;;;;;;16.27;12.73;;;29.20;99.90;;;;;;4167837;28;20052;-71
2022/03/21 02:04:37;;;;;;;13.80;12.27;;;29.20;99.90;;;;;;4168553;28;20476;-71
2022/03/21 02:06:44;;;;;;;15.13;11.80;;;29.30;99.90;;;;;;4132122;28;20151;-67
2022/03/21 02:08:50;;;;;;;17.73;13.27;;;29.40;99.90;;;;;;4174330;28;20052;-72
2022/03/21 02:10:55;;;;;;;17.33;13.18;;;29.40;99.90;;;;;;4167272;28;20072;-72
2022/03/21 02:13:00;;;;;;;15.40;12.38;;;29.40;99.90;;;;;;4166679;28;20056;-72
2022/03/21 02:15:07;;;;;;;18.73;13.48;;;29.40;99.90;;;;;;4168225;28;20063;-70
2022/03/21 02:17:21;;;;;;;16.38;12.65;;;29.40;99.90;;;;;;4158738;28;20129;-72
2022/03/21 02:19:33;;;;;;;17.27;12.27;;;29.50;99.90;;;;;;4154018;28;20119;-73
2022/03/21 02:22:11;;;;;;;14.88;12.23;;;29.60;99.90;;;;;;4158212;28;20048;-70
2022/03/21 02:24:38;;;;;;;17.48;12.52;;;29.60;99.90;;;;;;4156900;28;20634;-72
2022/03/21 02:26:45;;;;;;;16.92;13.05;;;29.70;99.90;;;;;;4160383;28;20053;-72
2022/03/21 02:28:52;;;;;;;20.58;13.57;;;29.80;99.90;;;;;;4160567;28;20053;-72
2022/03/21 02:31:00;;;;;;;17.77;13.10;;;29.80;99.90;;;;;;4158815;28;20056;-73
2022/03/21 02:33:06;;;;;;;17.85;12.45;;;30.00;99.90;;;;;;4160700;28;20042;-73
2022/03/21 02:35:14;;;;;;;16.85;11.95;;;30.00;99.90;;;;;;4160594;28;20129;-73
2022/03/21 02:37:22;;;;;;;17.08;13.15;;;30.00;99.90;;;;;;4158727;28;20065;-72
2022/03/21 02:39:28;;;;;;;16.75;13.52;;;30.10;99.90;;;;;;4158882;28;20095;-72
2022/03/21 02:41:34;;;;;;;17.67;13.30;;;30.10;99.90;;;;;;4160815;28;20041;-72
2022/03/21 02:43:59;;;;;;;15.90;12.77;;;30.10;99.90;;;;;;4158387;28;20050;-73
2022/03/21 02:46:07;;;;;;;18.17;13.35;;;30.20;99.90;;;;;;4158804;28;20064;-73
2022/03/21 02:48:14;;;;;;;15.07;12.52;;;30.20;99.90;;;;;;4160406;28;20041;-72
2022/03/21 02:50:43;;;;;;;18.75;13.52;;;30.30;99.90;;;;;;4160613;28;20080;-72
2022/03/21 02:52:51;;;;;;;16.27;13.90;;;30.30;99.90;;;;;;4159758;28;20049;-72
2022/03/21 02:54:58;;;;;;;17.15;14.13;;;30.40;99.90;;;;;;4160799;28;20451;-72
2022/03/21 02:57:05;;;;;;;17.30;12.82;;;30.40;99.90;;;;;;4157863;28;20073;-72
2022/03/21 02:59:15;;;;;;;15.82;13.43;;;30.40;99.90;;;;;;4156827;28;21722;-72
2022/03/21 03:01:20;;;;;;;18.80;14.73;;;30.50;99.90;;;;;;4156851;28;20053;-73
2022/03/21 03:03:25;;;;;;;18.02;14.85;;;30.50;99.90;;;;;;4157199;28;20084;-72
2022/03/21 03:05:33;;;;;;;18.90;13.70;;;30.50;99.90;;;;;;4159261;28;20133;-72
2022/03/21 03:07:38;;;;;;;17.73;14.05;;;30.60;99.90;;;;;;4157487;28;20049;-72
2022/03/21 03:09:45;;;;;;;19.73;15.15;;;30.60;99.90;;;;;;4160358;28;20044;-73
2022/03/21 03:11:52;;;;;;;15.90;13.73;;;30.60;99.90;;;;;;4159622;28;20120;-73
2022/03/21 03:13:57;;;;;;;16.13;13.55;;;30.80;99.90;;;;;;4158569;28;20076;-71
2022/03/21 03:16:04;;;;;;;14.55;12.93;;;30.80;99.90;;;;;;4160208;28;20050;-73
2022/03/21 03:18:12;;;;;;;19.08;15.15;;;31.00;99.90;;;;;;4182313;28;20057;-73
2022/03/21 03:20:18;;;;;;;17.80;13.95;;;31.10;99.90;;;;;;4158346;28;20045;-73
2022/03/21 03:22:27;;;;;;;17.38;13.95;;;31.00;99.90;;;;;;4158391;28;20073;-72
2022/03/21 03:24:33;;;;;;;19.13;13.70;;;31.20;99.90;;;;;;4120761;28;20457;-73
2022/03/21 03:26:38;;;;;;;15.30;11.82;;;31.10;99.80;;;;;;4158775;28;20049;-73
2022/03/21 03:28:46;;;;;;;16.42;12.07;;;31.10;99.80;;;;;;4158732;28;20148;-74
2022/03/21 03:30:53;;;;;;;16.15;13.38;;;31.20;99.50;;;;;;4158462;28;20622;-72
2022/03/21 03:32:58;;;;;;;17.95;13.27;;;31.30;99.30;;;;;;4157469;28;20091;-73
2022/03/21 03:35:06;;;;;;;15.18;11.75;;;31.30;99.50;;;;;;4183094;28;20124;-71
2022/03/21 03:37:14;;;;;;;14.80;11.75;;;31.40;97.70;;;;;;4159474;28;20042;-71
2022/03/21 03:39:19;;;;;;;12.02;10.70;;;31.40;97.20;;;;;;4157803;28;20747;-70
2022/03/21 03:41:27;;;;;;;16.83;10.93;;;31.40;97.40;;;;;;4158863;28;20083;-69
2022/03/21 03:43:34;;;;;;;15.27;11.40;;;31.40;96.90;;;;;;4159821;28;20049;-70
2022/03/21 03:45:40;;;;;;;15.48;12.20;;;31.50;96.00;;;;;;4156555;28;20048;-70
2022/03/21 03:47:45;;;;;;;14.98;11.75;;;31.50;96.10;;;;;;4158876;28;20071;-71
2022/03/21 03:49:51;;;;;;;12.60;11.30;;;31.60;95.80;;;;;;4155075;28;20108;-72
2022/03/21 03:51:56;;;;;;;12.65;10.93;;;31.70;96.10;;;;;;4155887;28;20045;-70
2022/03/21 03:54:04;;;;;;;11.80;10.57;;;31.80;96.20;;;;;;4157953;28;20824;-72
2022/03/21 03:56:11;;;;;;;25.73;10.30;;;31.90;96.10;;;;;;4141279;28;20152;-73
2022/03/21 03:58:16;;;;;;;10.77;8.55;;;32.00;95.90;;;;;;4159401;28;20379;-69
2022/03/21 04:00:31;;;;;;;11.05;9.45;;;32.10;95.50;;;;;;4156778;28;20080;-70
2022/03/21 04:03:44;;;;;;;13.48;9.90;;;32.10;96.20;;;;;;4158847;28;20111;-73
2022/03/21 04:05:01;;;;;;;10.23;9.18;;;32.20;95.90;;;;;;4156900;28;20053;-73
2022/03/21 04:07:09;;;;;;;10.60;9.55;;;32.00;95.90;;;;;;4154787;28;20107;-70
2022/03/21 04:09:14;;;;;;;10.82;9.63;;;31.90;95.70;;;;;;4156991;28;20519;-68
2022/03/21 04:11:19;;;;;;;11.25;10.05;;;31.90;96.00;;;;;;4157100;28;20144;-70
2022/03/21 04:13:26;;;;;;;12.00;10.52;;;31.90;96.20;;;;;;4158203;28;20042;-70
2022/03/21 04:15:33;;;;;;;12.43;10.63;;;31.90;96.30;;;;;;4155321;28;20092;-71
2022/03/21 04:17:38;;;;;;;10.77;9.65;;;32.10;95.80;;;;;;4158056;28;20034;-71
2022/03/21 04:19:43;;;;;;;12.35;11.02;;;32.00;95.60;;;;;;4157716;28;20530;-70
2022/03/21 04:21:49;;;;;;;12.25;10.35;;;31.90;95.80;;;;;;4155860;28;20441;-71
2022/03/21 04:23:57;;;;;;;15.82;10.98;;;31.90;95.60;;;;;;4159186;28;20471;-72
2022/03/21 04:26:02;;;;;;;13.70;11.30;;;32.00;95.60;;;;;;4159245;28;20049;-72
2022/03/21 04:28:09;;;;;;;11.90;10.73;;;32.10;95.40;;;;;;4159361;28;20042;-72
2022/03/21 04:30:15;;;;;;;12.32;9.70;;;32.20;95.40;;;;;;4158106;28;20042;-72
2022/03/21 04:32:24;;;;;;;12.18;10.88;;;32.10;95.10;;;;;;4157807;28;20720;-72
2022/03/21 04:34:29;;;;;;;11.70;10.20;;;32.00;95.30;;;;;;4157434;28;20476;-72
2022/03/21 04:36:39;;;;;;;11.98;10.10;;;32.00;95.40;;;;;;4159134;28;20096;-72
2022/03/21 04:38:46;;;;;;;13.25;10.02;;;32.00;95.20;;;;;;4162113;28;20435;-72
2022/03/21 04:40:52;;;;;;;12.68;11.30;;;32.20;94.80;;;;;;4163809;28;20056;-72
2022/03/21 04:42:58;;;;;;;11.60;10.40;;;32.30;95.20;;;;;;4163509;28;20467;-73
2022/03/21 04:45:04;;;;;;;12.13;10.35;;;32.50;95.70;;;;;;4164429;28;20129;-72
2022/03/21 04:47:11;;;;;;;11.98;10.05;;;32.50;95.50;;;;;;4163167;28;20115;-72
2022/03/21 04:49:16;;;;;;;13.32;10.95;;;32.50;95.50;;;;;;4164234;28;20092;-73
2022/03/21 04:51:21;;;;;;;11.18;9.98;;;32.30;95.20;;;;;;4160841;28;20124;-71
2022/03/21 04:53:26;;;;;;;12.48;10.07;;;32.30;95.10;;;;;;4161647;28;20044;-73
2022/03/21 04:55:32;;;;;;;12.32;9.32;;;32.20;94.70;;;;;;4156736;28;20065;-72
2022/03/21 04:57:40;;;;;;;12.85;10.75;;;32.30;94.70;;;;;;4160973;28;20507;-73
2022/03/21 04:59:46;;;;;;;12.85;10.85;;;32.20;94.90;;;;;;4161733;28;20053;-74
2022/03/21 05:01:51;;;;;;;11.82;10.60;;;32.10;95.30;;;;;;4160749;28;20053;-73
2022/03/21 05:04:00;;;;;;;16.23;11.98;;;32.10;95.20;;;;;;4162032;28;20144;-72
2022/03/21 05:06:07;;;;;;;14.27;11.45;;;32.10;95.00;;;;;;4159487;28;20118;-73
2022/03/21 05:08:12;;;;;;;12.40;11.10;;;32.10;94.90;;;;;;4159303;28;20140;-72
2022/03/21 05:10:20;;;;;;;12.60;11.30;;;32.10;94.80;;;;;;4161163;28;20041;-72
2022/03/21 05:12:27;;;;;;;11.80;10.60;;;32.20;94.90;;;;;;4161985;28;20048;-73
2022/03/21 05:14:32;;;;;;;12.02;10.73;;;32.20;95.00;;;;;;4159378;28;20057;-74
2022/03/21 05:16:39;;;;;;;11.77;10.50;;;32.30;95.00;;;;;;4161546;28;20046;-73
2022/03/21 05:18:47;;;;;;;11.73;10.55;;;32.40;95.00;;;;;;4161765;28;20563;-73
2022/03/21 05:20:52;;;;;;;15.02;10.93;;;32.40;95.00;;;;;;4159497;28;20053;-73
2022/03/21 05:32:15;;;;;;;13.65;10.82;;;32.50;94.50;;;;;;4159786;28;20041;-72
2022/03/21 05:36:42;;;;;;;11.80;10.55;;;32.60;94.20;;;;;;4160080;28;20542;-73
2022/03/21 05:38:50;;;;;;;11.40;10.20;;;32.60;94.40;;;;;;4161273;28;20563;-73
2022/03/21 05:40:58;;;;;;;12.07;10.88;;;32.60;94.60;;;;;;4158647;28;20450;-73
2022/03/21 05:43:05;;;;;;;12.25;10.93;;;32.50;94.40;;;;;;4160342;28;20085;-72
2022/03/21 05:45:11;;;;;;;11.90;10.75;;;32.50;94.50;;;;;;4141989;28;20046;-72
2022/03/21 05:47:16;;;;;;;12.52;11.23;;;32.60;94.20;;;;;;4160717;28;20077;-72
2022/03/21 05:49:23;;;;;;;12.70;10.80;;;32.80;94.20;;;;;;4160950;28;20037;-72
2022/03/21 05:51:31;;;;;;;12.07;10.52;;;32.80;94.00;;;;;;4161027;28;20065;-72
2022/03/21 05:53:35;;;;;;;11.75;10.55;;;32.90;94.00;;;;;;4183248;28;20487;-73
2022/03/21 05:55:48;;;;;;;10.85;9.75;;;33.00;93.90;;;;;;4162389;28;20041;-72
2022/03/21 05:57:56;;;;;;;12.00;10.32;;;33.00;93.80;;;;;;4164074;28;20496;-72
2022/03/21 06:02:20;;;;;;;13.25;10.55;;;32.90;93.70;;;;;;4160238;28;20041;-72
2022/03/21 06:04:27;;;;;;;12.48;10.93;;;32.80;93.50;;;;;;4129633;28;20046;-72
2022/03/21 06:06:32;;;;;;;11.45;10.25;;;32.90;93.10;;;;;;4163600;28;20115;-73
2022/03/21 06:08:38;;;;;;;11.23;10.13;;;33.00;92.80;;;;;;4161608;28;20041;-73
2022/03/21 06:10:46;;;;;;;10.95;9.80;;;33.00;93.10;;;;;;4164143;28;20041;-72
2022/03/21 06:12:55;;;;;;;11.07;9.77;;;33.10;93.00;;;;;;4162018;28;20049;-72
2022/03/21 06:15:04;;;;;;;11.10;9.57;;;33.10;92.60;;;;;;4164121;28;20038;-72
2022/03/21 06:17:11;;;;;;;13.15;9.77;;;33.10;92.50;;;;;;4155152;28;20204;-69
2022/03/21 06:19:16;;;;;;;11.20;10.10;;;33.10;92.60;;;;;;4163198;28;20045;-72
2022/03/21 06:21:23;;;;;;;10.90;9.40;;;33.20;92.50;;;;;;4160948;28;20602;-70
2022/03/21 06:23:31;;;;;;;14.50;10.23;;;33.30;92.30;;;;;;4162892;28;20052;-69
2022/03/21 06:25:37;;;;;;;11.00;9.77;;;33.40;92.10;;;;;;4160814;28;20049;-69
2022/03/21 06:27:44;;;;;;;11.48;9.40;;;33.40;92.10;;;;;;4163243;28;20073;-70
2022/03/21 06:29:52;;;;;;;10.35;9.18;;;33.40;92.30;;;;;;4144631;28;20588;-70
2022/03/21 06:31:57;;;;;;;12.05;9.10;;;33.50;92.20;;;;;;4160007;28;20041;-70
2022/03/21 06:34:05;;;;;;;11.70;10.50;;;33.50;92.30;;;;;;4163286;28;20100;-69
2022/03/21 06:36:13;;;;;;;10.70;9.70;;;33.60;92.70;;;;;;4159421;28;20570;-69
2022/03/21 06:38:21;;;;;;;10.88;9.60;;;33.60;92.70;;;;;;4157447;28;20068;-70
2022/03/21 06:41:17;;;;;;;11.40;10.20;;;33.60;92.40;;;;;;4135442;28;20053;-70
2022/03/21 06:44:05;;;;;;;11.57;10.43;;;33.60;91.90;;;;;;4158294;28;20859;-71
2022/03/21 06:46:16;;;;;;;11.82;9.70;;;33.60;91.80;;;;;;4158806;28;20056;-71
2022/03/21 06:48:33;;;;;;;11.60;10.07;;;33.60;92.00;;;;;;4166314;28;20049;-71
2022/03/21 06:51:01;;;;;;;12.00;10.15;;;33.40;92.10;;;;;;4161144;28;20095;-71
2022/03/21 06:53:47;;;;;;;12.05;10.75;;;33.50;92.20;;;;;;4160181;28;20044;-69
2022/03/21 06:55:53;;;;;;;12.45;10.45;;;33.60;92.00;;;;;;4159775;28;20160;-71
2022/03/21 06:57:58;;;;;;;13.35;10.10;;;33.60;92.00;;;;;;4159299;28;20044;-71
2022/03/21 07:00:05;;;;;;;12.35;11.05;;;33.60;91.60;;;;;;4160171;28;20063;-71
2022/03/21 07:02:41;;;;;;;12.13;10.57;;;33.70;91.50;;;;;;4156538;28;20080;-68
2022/03/21 07:05:15;;;;;;;11.10;9.90;;;33.70;91.40;;;;;;4171330;28;20041;-70
2022/03/21 07:07:29;;;;;;;12.50;9.80;;;33.70;91.40;;;;;;4144045;28;20045;-72
2022/03/21 07:09:33;;;;;;;11.63;9.75;;;33.70;90.70;;;;;;4158546;28;20774;-70
2022/03/21 07:11:40;;;;;;;10.65;9.55;;;33.80;90.50;;;;;;4160477;28;20048;-70
2022/03/21 07:13:48;;;;;;;9.48;8.57;;;33.80;90.60;;;;;;4159965;28;20144;-70
2022/03/21 07:15:53;;;;;;;10.55;8.82;;;33.80;90.60;;;;;;4180576;28;20106;-71
2022/03/21 07:18:00;;;;;;;10.15;9.15;;;33.90;90.70;;;;;;4160897;28;20053;-70
2022/03/21 07:20:12;;;;;;;11.85;8.98;;;33.90;90.30;;;;;;4141633;28;20133;-71
2022/03/21 07:22:23;;;;;;;12.23;9.90;;;33.80;90.60;;;;;;4160112;28;20148;-72
2022/03/21 07:24:29;;;;;;;10.73;9.60;;;33.70;90.70;;;;;;4160251;28;20132;-72
2022/03/21 07:27:00;;;;;;;12.02;10.20;;;33.60;90.70;;;;;;4157483;28;20053;-72
2022/03/21 07:29:11;;;;;;;10.95;9.85;;;33.60;90.90;;;;;;4166284;28;20112;-72
2022/03/21 07:31:18;;;;;;;12.02;9.77;;;33.70;90.70;;;;;;4159837;28;20053;-71
2022/03/21 07:33:24;;;;;;;11.25;9.20;;;33.70;90.70;;;;;;4160420;28;20064;-70
2022/03/21 07:35:28;;;;;;;11.43;10.25;;;33.70;90.60;;;;;;4160775;28;20064;-71
2022/03/21 07:37:49;;;;;;;11.05;9.30;;;33.70;90.60;;;;;;4158285;28;20396;-72
2022/03/21 07:39:55;;;;;;;13.80;9.57;;;33.70;90.70;;;;;;4161395;28;20106;-70
2022/03/21 07:42:01;;;;;;;10.50;9.40;;;33.70;90.80;;;;;;4160489;28;20057;-72
2022/03/21 07:44:06;;;;;;;12.77;9.90;;;33.80;90.70;;;;;;4160038;28;20084;-70
2022/03/21 07:48:28;;;;;;;12.82;9.77;;;33.70;91.00;;;;;;4158015;28;20049;-71
2022/03/21 07:50:36;;;;;;;12.98;11.23;;;33.80;91.10;;;;;;4157849;28;20572;-71
2022/03/21 07:52:42;;;;;;;13.63;10.25;;;33.70;91.60;;;;;;4160157;28;20068;-72
2022/03/21 07:54:53;;;;;;;13.65;10.23;;;33.60;91.40;;;;;;4159246;28;20041;-71
2022/03/21 07:57:00;;;;;;;12.70;9.38;;;33.50;91.40;;;;;;4179795;28;20081;-72
2022/03/21 07:59:07;;;;;;;27.23;9.18;;;33.30;91.60;;;;;;4161169;28;20049;-73
2022/03/21 08:01:12;;;;;;;19.42;9.00;;;33.10;91.90;;;;;;4160278;28;20053;-73
2022/03/21 08:03:17;;;;;;;14.50;8.68;;;32.90;92.10;;;;;;4159519;28;20128;-71
2022/03/21 08:05:24;;;;;;;15.52;8.20;;;32.60;92.50;;;;;;4159561;28;20041;-70
2022/03/21 08:07:29;;;;;;;18.20;9.75;;;32.40;93.20;;;;;;4158248;28;20508;-71
2022/03/21 08:09:34;;;;;;;16.65;9.50;;;32.10;94.70;;;;;;4155181;28;20096;-70
2022/03/21 08:11:40;;;;;;;16.08;8.57;;;31.90;95.60;;;;;;4160573;28;20060;-69
2022/03/21 08:13:49;;;;;;;13.05;9.48;;;31.80;96.30;;;;;;4161751;28;20099;-71
2022/03/21 08:15:54;;;;;;;13.57;8.73;;;31.80;96.40;;;;;;4161477;28;20061;-70
2022/03/21 08:18:00;;;;;;;17.38;10.23;;;31.80;96.50;;;;;;4188119;28;20045;-71
2022/03/21 08:20:06;;;;;;;14.57;9.43;;;31.80;96.80;;;;;;4160032;28;20042;-71
2022/03/21 08:22:14;;;;;;;11.82;9.27;;;31.60;96.90;;;;;;4159292;28;20073;-73
2022/03/21 08:24:26;;;;;;;11.38;9.10;;;31.50;97.00;;;;;;4160747;28;20052;-69
2022/03/21 08:26:31;;;;;;;15.55;9.75;;;31.60;97.00;;;;;;4162759;28;20627;-68
2022/03/21 08:28:38;;;;;;;11.10;8.77;;;31.60;96.80;;;;;;4158770;28;20083;-70
2022/03/21 08:30:45;;;;;;;12.52;9.07;;;31.80;96.70;;;;;;4159171;28;20065;-70
2022/03/21 08:32:51;;;;;;;11.50;8.07;;;31.80;96.50;;;;;;4157168;28;20049;-70
2022/03/21 08:35:00;;;;;;;12.82;8.40;;;31.90;96.30;;;;;;4158603;28;20107;-71
2022/03/21 08:37:08;;;;;;;13.27;8.75;;;31.90;96.20;;;;;;4160107;28;20053;-70
2022/03/21 08:39:13;;;;;;;11.23;8.60;;;32.00;95.90;;;;;;4160389;28;20141;-70
2022/03/21 08:41:21;;;;;;;9.98;8.25;;;32.10;95.70;;;;;;4158962;28;20071;-70
2022/03/21 08:43:29;;;;;;;10.52;7.88;;;32.20;95.80;;;;;;4159688;28;20068;-71
2022/03/21 08:45:35;;;;;;;11.88;8.15;;;32.10;95.50;;;;;;4160946;28;20038;-71
2022/03/21 08:47:44;;;;;;;11.02;8.02;;;32.10;95.50;;;;;;4159852;28;20047;-71
2022/03/21 08:49:50;;;;;;;13.57;7.95;;;32.10;95.50;;;;;;4160494;28;20041;-70
2022/03/21 08:51:55;;;;;;;8.85;7.18;;;32.10;95.40;;;;;;4160762;28;20045;-70
2022/03/21 08:54:04;;;;;;;11.95;6.47;;;32.10;95.20;;;;;;4160724;28;20088;-70
2022/03/21 08:56:11;;;;;;;10.23;6.13;;;32.20;94.50;;;;;;4159052;28;20037;-70
2022/03/21 08:58:15;;;;;;;8.63;6.68;;;32.20;94.60;;;;;;4158058;28;20151;-70
2022/03/21 09:00:20;;;;;;;13.15;6.60;;;32.10;94.40;;;;;;4160124;28;20111;-71
2022/03/21 09:02:27;;;;;;;7.80;6.10;;;32.10;94.50;;;;;;4141549;28;20135;-70
2022/03/21 09:04:33;;;;;;;9.35;6.63;;;32.10;94.40;;;;;;4160370;28;20119;-70
2022/03/21 09:06:40;;;;;;;12.93;6.65;;;32.00;94.70;;;;;;4159783;28;20333;-69
2022/03/21 09:08:47;;;;;;;8.73;7.18;;;32.10;94.60;;;;;;4159954;28;20059;-68
2022/03/21 09:10:52;;;;;;;10.43;7.70;;;32.10;94.50;;;;;;4160347;28;20132;-69
2022/03/21 09:13:00;;;;;;;12.85;7.10;;;32.10;94.40;;;;;;4160416;28;20140;-67
2022/03/21 09:15:08;;;;;;;12.50;7.50;;;32.10;94.40;;;;;;4158191;28;20132;-69
2022/03/21 09:17:13;;;;;;;10.60;8.68;;;32.00;94.40;;;;;;4159772;28;20540;-69
2022/03/21 09:19:22;;;;;;;11.65;9.55;;;32.10;94.40;;;;;;4159943;28;20120;-68
2022/03/21 09:21:28;;;;;;;11.60;9.00;;;32.10;94.40;;;;;;4159683;28;20041;-70
2022/03/21 09:23:33;;;;;;;10.45;8.20;;;32.10;94.60;;;;;;4159951;28;20051;-68
2022/03/21 09:25:40;;;;;;;10.15;8.07;;;32.20;94.40;;;;;;4159710;28;20068;-69
2022/03/21 09:27:46;;;;;;;9.25;7.60;;;32.20;94.40;;;;;;4160207;28;20568;-69
2022/03/21 09:29:51;;;;;;;9.07;6.95;;;32.30;94.20;;;;;;4159794;28;20065;-69
2022/03/21 09:32:01;;;;;;;10.13;7.47;;;32.30;94.10;;;;;;4159916;28;20613;-69
2022/03/21 09:34:09;;;;;;;10.35;6.97;;;32.30;94.10;;;;;;4159996;28;20048;-70
2022/03/21 09:36:14;;;;;;;9.75;7.15;;;32.30;94.10;;;;;;4159881;28;20072;-69
2022/03/21 09:38:22;;;;;;;8.35;7.28;;;32.30;94.00;;;;;;4159757;28;20073;-70
2022/03/21 09:40:29;;;;;;;10.15;6.30;;;32.30;93.80;;;;;;4159901;28;20569;-70
2022/03/21 09:42:35;;;;;;;7.82;7.03;;;32.20;93.60;;;;;;4159828;28;20643;-70
2022/03/21 09:44:43;;;;;;;7.82;5.88;;;32.20;93.80;;;;;;4157866;28;20049;-70
2022/03/21 09:46:50;;;;;;;8.07;6.60;;;32.20;93.80;;;;;;4158619;28;20221;-70
2022/03/21 09:48:56;;;;;;;7.47;5.88;;;32.20;93.90;;;;;;4156893;28;20104;-70
2022/03/21 09:51:04;;;;;;;8.13;5.70;;;32.10;93.80;;;;;;4159376;28;20067;-70
2022/03/21 09:53:14;;;;;;;8.13;5.85;;;32.10;93.70;;;;;;4158313;28;20816;-71
2022/03/21 09:55:19;;;;;;;6.53;5.93;;;32.10;93.70;;;;;;4159707;28;20052;-71
2022/03/21 09:57:26;;;;;;;6.70;5.65;;;32.10;93.80;;;;;;4158500;28;20527;-69
2022/03/21 09:59:33;;;;;;;6.68;5.95;;;32.10;93.90;;;;;;4158258;28;20034;-70
2022/03/21 10:01:38;;;;;;;7.28;6.57;;;32.00;93.90;;;;;;4156670;28;20045;-70
2022/03/21 10:03:46;;;;;;;8.63;6.45;;;31.90;93.90;;;;;;4159108;28;20084;-70
2022/03/21 10:05:54;;;;;;;7.95;6.35;;;31.80;94.10;;;;;;4156602;28;21501;-71
2022/03/21 10:08:30;;;;;;;9.32;6.70;;;31.80;94.30;;;;;;4156368;28;20730;-70
2022/03/21 10:10:38;;;;;;;8.57;6.57;;;31.80;94.40;;;;;;4158830;28;20076;-70
2022/03/21 10:12:51;;;;;;;9.60;6.65;;;31.80;94.50;;;;;;4159080;28;20091;-69
2022/03/21 10:14:57;;;;;;;7.95;6.38;;;31.80;94.70;;;;;;4176907;28;20052;-70
2022/03/21 10:17:09;;;;;;;7.72;6.47;;;31.80;94.80;;;;;;4159181;28;20045;-69
2022/03/21 10:19:16;;;;;;;13.57;7.00;;;31.80;94.90;;;;;;4159352;28;20041;-70
2022/03/21 10:21:22;;;;;;;22.45;8.57;;;31.80;95.10;;;;;;4159743;28;20047;-70
2022/03/21 10:23:33;;;;;;;19.25;7.50;;;31.70;95.40;;;;;;4159386;28;20049;-67
2022/03/21 10:25:40;;;;;;;14.63;6.47;;;31.70;95.40;;;;;;4151788;28;20103;-69
2022/03/21 10:27:45;;;;;;;13.18;8.18;;;31.60;95.60;;;;;;4159148;28;20049;-69
2022/03/21 10:29:52;;;;;;;13.20;7.25;;;31.60;95.80;;;;;;4159462;28;20056;-69
2022/03/21 10:31:58;;;;;;;10.93;7.63;;;31.50;95.90;;;;;;4159648;28;20763;-69
2022/03/21 10:34:07;;;;;;;11.75;7.45;;;31.50;95.90;;;;;;4158281;28;20050;-69
2022/03/21 10:36:17;;;;;;;11.30;7.60;;;31.50;96.00;;;;;;4157679;28;20153;-69
2022/03/21 10:38:32;;;;;;;11.25;7.35;;;31.50;96.10;;;;;;4159299;28;20103;-69
2022/03/21 10:40:57;;;;;;;13.48;7.82;;;31.40;96.10;;;;;;4153839;28;20077;-70
2022/03/21 10:43:07;;;;;;;14.07;8.52;;;31.40;96.20;;;;;;4159983;28;20041;-70
2022/03/21 10:45:14;;;;;;;10.93;8.25;;;31.40;96.30;;;;;;4159756;28;20045;-70
2022/03/21 10:47:19;;;;;;;11.13;7.90;;;31.40;96.40;;;;;;4158412;28;20088;-70
2022/03/21 10:49:43;;;;;;;10.60;8.50;;;31.30;96.50;;;;;;4157184;28;20041;-69
2022/03/21 10:51:51;;;;;;;13.02;8.88;;;31.20;96.70;;;;;;4151756;28;20053;-70
2022/03/21 10:53:58;;;;;;;11.18;8.73;;;31.20;96.70;;;;;;4158638;28;20492;-69
2022/03/21 10:56:07;;;;;;;12.23;8.95;;;31.10;96.80;;;;;;4158449;28;20042;-70
2022/03/21 10:58:15;;;;;;;10.68;8.10;;;31.10;97.00;;;;;;4159048;28;20042;-70
2022/03/21 11:00:24;;;;;;;11.55;8.57;;;31.10;97.00;;;;;;4157612;28;20057;-69
2022/03/21 11:02:31;;;;;;;11.05;9.00;;;31.00;97.10;;;;;;4158653;28;20081;-70
2022/03/21 11:04:38;;;;;;;11.75;8.98;;;31.00;97.20;;;;;;4159033;28;20252;-70
2022/03/21 11:06:43;;;;;;;11.63;9.77;;;31.00;97.30;;;;;;4158996;28;20049;-70
2022/03/21 11:08:52;;;;;;;12.50;10.27;;;30.90;97.30;;;;;;4150545;28;20158;-70
2022/03/21 11:10:59;;;;;;;13.18;9.70;;;30.90;97.40;;;;;;4158977;28;20049;-70
2022/03/21 11:13:05;;;;;;;10.23;8.35;;;30.80;97.50;;;;;;4161010;28;20041;-66
2022/03/21 11:15:10;;;;;;;16.38;10.13;;;30.70;97.70;;;;;;4161662;28;20042;-69